createdAt,value
2022-10-18T00:01:53.277Z,7.07
2022-10-18T00:04:19.674Z,6.47
2022-10-18T00:06:46.053Z,6.80
2022-10-18T00:09:15.364Z,6.30
2022-10-18T00:11:41.913Z,6.70
2022-10-18T00:14:08.227Z,7.10
2022-10-18T00:16:34.628Z,6.95
2022-10-18T00:19:01.267Z,6.47
2022-10-18T00:21:28.026Z,7.47
2022-10-18T00:23:54.713Z,7.35
2022-10-18T00:26:22.381Z,8.02
2022-10-18T00:28:53.499Z,6.65
2022-10-18T00:31:30.184Z,6.60
2022-10-18T00:33:57.759Z,6.40
2022-10-18T00:36:24.607Z,6.88
2022-10-18T00:38:51.609Z,7.28
2022-10-18T00:41:19.568Z,6.53
2022-10-18T00:44:00.304Z,7.00
2022-10-18T00:46:31.424Z,6.80
2022-10-18T00:49:00.010Z,7.15
2022-10-18T00:51:32.768Z,7.18
2022-10-18T00:53:59.112Z,7.22
2022-10-18T00:56:25.937Z,7.20
2022-10-18T00:58:52.876Z,7.25
2022-10-18T01:01:24.425Z,7.40
2022-10-18T01:03:54.141Z,8.23
2022-10-18T01:06:20.697Z,6.90
2022-10-18T01:08:56.901Z,6.47
2022-10-18T01:11:36.001Z,6.85
2022-10-18T01:14:09.874Z,6.75
2022-10-18T01:16:55.176Z,7.13
2022-10-18T01:19:33.207Z,6.90
2022-10-18T01:22:02.824Z,6.60
2022-10-18T01:24:47.808Z,6.63
2022-10-18T01:27:34.857Z,6.78
2022-10-18T01:30:21.216Z,6.50
2022-10-18T01:32:48.816Z,7.80
2022-10-18T01:35:19.968Z,6.82
2022-10-18T01:37:49.990Z,7.43
2022-10-18T01:40:18.540Z,7.00
2022-10-18T01:42:46.367Z,6.80
2022-10-18T01:45:14.041Z,7.93
2022-10-18T01:47:40.871Z,7.22
2022-10-18T01:50:07.395Z,6.18
2022-10-18T01:52:34.143Z,7.10
2022-10-18T01:55:00.728Z,5.85
2022-10-18T01:57:32.102Z,5.85
2022-10-18T02:00:04.347Z,6.32
2022-10-18T02:02:39.650Z,5.55
2022-10-18T02:07:55.471Z,5.93
2022-10-18T02:10:41.121Z,6.50
2022-10-18T02:15:37.815Z,6.53
2022-10-18T02:18:08.599Z,6.63
2022-10-18T02:20:36.467Z,6.65
2022-10-18T02:23:03.232Z,6.28
2022-10-18T02:25:33.476Z,5.40
2022-10-18T02:28:00.103Z,6.65
2022-10-18T02:30:31.644Z,6.28
2022-10-18T02:33:18.428Z,6.38
2022-10-18T02:35:49.389Z,6.15
2022-10-18T02:38:19.578Z,5.70
2022-10-18T02:40:45.905Z,6.28
2022-10-18T02:43:14.153Z,5.25
2022-10-18T02:45:40.548Z,6.05
2022-10-18T02:48:07.520Z,6.15
2022-10-18T02:50:34.008Z,6.45
2022-10-18T02:53:00.390Z,6.25
2022-10-18T02:55:26.782Z,5.68
2022-10-18T02:57:53.107Z,5.97
2022-10-18T03:00:19.487Z,6.38
2022-10-18T03:02:45.879Z,5.78
2022-10-18T03:05:12.475Z,5.90
2022-10-18T03:07:38.787Z,5.85
2022-10-18T03:10:07.802Z,6.88
2022-10-18T03:12:34.128Z,6.20
2022-10-18T03:15:00.466Z,6.45
2022-10-18T03:17:30.105Z,6.93
2022-10-18T03:19:56.610Z,7.00
2022-10-18T03:22:23.242Z,7.40
2022-10-18T03:24:49.959Z,6.60
2022-10-18T03:27:16.288Z,6.95
2022-10-18T03:29:42.709Z,6.95
2022-10-18T03:32:09.048Z,7.82
2022-10-18T03:34:35.366Z,7.95
2022-10-18T03:37:07.782Z,6.97
2022-10-18T03:39:34.125Z,7.30
2022-10-18T03:42:00.439Z,6.00
2022-10-18T03:44:29.555Z,7.43
2022-10-18T03:46:56.007Z,7.28
2022-10-18T03:49:22.352Z,8.07
2022-10-18T03:51:48.665Z,7.28
2022-10-18T03:54:15.038Z,7.93
2022-10-18T03:56:41.305Z,7.35
2022-10-18T03:59:08.167Z,7.00
2022-10-18T04:01:34.749Z,7.50
2022-10-18T04:04:01.262Z,7.82
2022-10-18T04:06:27.609Z,7.53
2022-10-18T04:08:54.756Z,7.68
2022-10-18T04:11:21.198Z,7.40
2022-10-18T04:13:47.841Z,8.25
2022-10-18T04:16:14.205Z,7.53
2022-10-18T04:18:40.524Z,8.93
2022-10-18T04:21:07.085Z,9.20
2022-10-18T04:23:36.347Z,9.35
2022-10-18T04:26:05.096Z,8.98
2022-10-18T04:28:31.422Z,9.38
2022-10-18T04:30:58.150Z,8.43
2022-10-18T04:33:27.365Z,8.70
2022-10-18T04:35:56.775Z,8.55
2022-10-18T04:38:23.218Z,8.80
2022-10-18T04:40:49.756Z,8.90
2022-10-18T04:43:18.930Z,8.80
2022-10-18T04:45:47.970Z,8.30
2022-10-18T04:48:18.525Z,10.32
2022-10-18T04:50:48.287Z,11.00
2022-10-18T04:53:14.991Z,10.13
2022-10-18T04:55:46.441Z,9.82
2022-10-18T04:58:13.165Z,10.10
2022-10-18T05:00:40.137Z,9.27
2022-10-18T05:03:07.020Z,9.48
2022-10-18T05:05:49.653Z,9.05
2022-10-18T05:08:19.856Z,8.13
2022-10-18T05:10:46.932Z,8.20
2022-10-18T05:13:13.270Z,8.15
2022-10-18T05:15:39.603Z,8.82
2022-10-18T05:18:05.916Z,9.18
2022-10-18T05:20:32.235Z,10.32
2022-10-18T05:22:58.728Z,8.88
2022-10-18T05:25:26.348Z,8.88
2022-10-18T05:27:53.111Z,10.05
2022-10-18T05:30:20.876Z,11.00
2022-10-18T05:32:47.225Z,10.95
2022-10-18T05:35:15.543Z,9.88
2022-10-18T05:37:41.841Z,10.00
2022-10-18T05:40:08.617Z,9.95
2022-10-18T05:42:34.916Z,11.63
2022-10-18T05:45:01.456Z,11.43
2022-10-18T05:47:27.859Z,10.25
2022-10-18T05:49:54.300Z,10.98
2022-10-18T05:52:20.856Z,9.57
2022-10-18T05:54:47.136Z,9.93
2022-10-18T05:57:13.525Z,10.15
2022-10-18T05:59:39.929Z,11.77
2022-10-18T06:02:06.518Z,12.90
2022-10-18T06:04:32.834Z,12.43
2022-10-18T06:06:59.235Z,11.35
2022-10-18T06:09:25.932Z,11.07
2022-10-18T06:11:52.369Z,11.57
2022-10-18T06:14:18.788Z,11.40
2022-10-18T06:16:45.128Z,12.00
2022-10-18T06:19:12.105Z,11.68
2022-10-18T06:21:38.428Z,12.82
2022-10-18T06:24:04.866Z,13.52
2022-10-18T06:26:31.147Z,12.25
2022-10-18T06:28:57.671Z,12.18
2022-10-18T06:31:24.027Z,12.43
2022-10-18T06:33:50.563Z,13.73
2022-10-18T06:36:18.107Z,13.68
2022-10-18T06:38:44.526Z,12.48
2022-10-18T06:41:10.884Z,13.05
2022-10-18T06:43:37.191Z,13.13
2022-10-18T06:46:05.596Z,14.07
2022-10-18T06:48:32.340Z,12.73
2022-10-18T06:50:59.915Z,12.50
2022-10-18T06:53:27.352Z,11.93
2022-10-18T06:55:58.484Z,11.18
2022-10-18T06:58:24.825Z,11.00
2022-10-18T07:00:51.076Z,11.05
2022-10-18T07:03:17.417Z,11.60
2022-10-18T07:05:44.064Z,10.40
2022-10-18T07:08:10.368Z,10.68
2022-10-18T07:10:36.666Z,11.43
2022-10-18T07:13:30.429Z,12.50
2022-10-18T07:15:49.188Z,11.73
2022-10-18T07:18:15.485Z,11.82
2022-10-18T07:20:41.804Z,11.10
2022-10-18T07:23:09.464Z,11.85
2022-10-18T07:25:35.784Z,11.30
2022-10-18T07:28:02.149Z,10.23
2022-10-18T07:30:28.438Z,11.23
2022-10-18T07:32:54.758Z,11.15
2022-10-18T07:35:21.032Z,12.13
2022-10-18T07:37:47.318Z,11.52
2022-10-18T07:40:13.640Z,12.00
2022-10-18T07:42:40.209Z,12.82
2022-10-18T07:45:06.922Z,13.88
2022-10-18T07:47:35.218Z,12.65
2022-10-18T07:50:01.743Z,11.98
2022-10-18T07:52:28.023Z,12.00
2022-10-18T07:54:54.304Z,12.43
2022-10-18T07:57:20.605Z,11.82
2022-10-18T07:59:48.161Z,12.55
2022-10-18T08:02:14.462Z,11.30
2022-10-18T08:04:41.552Z,11.25
2022-10-18T08:07:07.880Z,11.27
2022-10-18T08:09:34.141Z,11.23
2022-10-18T08:12:00.401Z,10.40
2022-10-18T08:14:26.669Z,10.93
2022-10-18T08:16:53.002Z,12.00
2022-10-18T08:19:19.342Z,11.18
2022-10-18T08:21:45.620Z,12.10
2022-10-18T08:24:11.894Z,11.88
2022-10-18T08:26:38.330Z,11.20
2022-10-18T08:29:21.209Z,12.85
2022-10-18T08:31:49.622Z,12.57
2022-10-18T08:34:19.524Z,12.70
2022-10-18T08:36:46.206Z,11.90
2022-10-18T08:39:12.478Z,12.25
2022-10-18T08:41:56.918Z,14.05
2022-10-18T08:44:27.543Z,15.57
2022-10-18T08:47:15.338Z,14.18
2022-10-18T08:49:47.066Z,15.30
2022-10-18T08:52:33.948Z,16.48
2022-10-18T08:55:02.498Z,16.45
2022-10-18T08:57:29.061Z,18.45
2022-10-18T08:59:55.510Z,17.90
2022-10-18T09:02:40.457Z,19.52
2022-10-18T09:05:16.595Z,17.20
2022-10-18T09:07:42.900Z,14.30
2022-10-18T09:10:23.922Z,13.13
2022-10-18T09:13:08.733Z,14.05
2022-10-18T09:15:53.597Z,13.50
2022-10-18T09:18:31.861Z,13.45
2022-10-18T09:20:59.506Z,12.48
2022-10-18T09:23:25.848Z,11.88
2022-10-18T09:25:59.272Z,13.38
2022-10-18T09:28:25.571Z,12.88
2022-10-18T09:30:58.756Z,10.15
2022-10-18T09:33:39.085Z,8.95
2022-10-18T09:36:07.647Z,8.48
2022-10-18T09:38:39.408Z,9.25
2022-10-18T09:41:08.761Z,7.93
2022-10-18T09:43:52.601Z,7.68
2022-10-18T09:46:20.403Z,9.45
2022-10-18T09:48:49.365Z,7.63
2022-10-18T09:51:21.638Z,7.80
2022-10-18T09:53:54.170Z,7.07
2022-10-18T09:56:29.565Z,6.13
2022-10-18T09:58:55.922Z,6.30
2022-10-18T10:01:24.700Z,5.60
2022-10-18T10:03:51.007Z,7.00
2022-10-18T10:06:23.151Z,5.65
2022-10-18T10:08:53.845Z,5.90
2022-10-18T10:11:32.104Z,5.22
2022-10-18T10:14:07.715Z,5.70
2022-10-18T10:16:41.968Z,4.88
2022-10-18T10:19:14.856Z,4.90
2022-10-18T10:21:41.235Z,6.00
2022-10-18T10:24:16.587Z,5.82
2022-10-18T10:26:42.874Z,5.00
2022-10-18T10:29:44.014Z,4.50
2022-10-18T10:32:12.915Z,4.50
2022-10-18T10:34:42.332Z,4.90
2022-10-18T10:37:22.831Z,4.72
2022-10-18T10:40:17.672Z,9.80
2022-10-18T10:42:51.082Z,4.28
2022-10-18T10:45:17.388Z,4.53
2022-10-18T10:47:43.668Z,3.97
2022-10-18T10:50:11.945Z,4.25
2022-10-18T10:52:40.193Z,3.60
2022-10-18T10:55:34.197Z,4.10
2022-10-18T10:58:01.176Z,3.50
2022-10-18T11:00:45.811Z,4.82
2022-10-18T11:03:28.569Z,4.33
2022-10-18T11:05:55.681Z,3.60
2022-10-18T11:08:39.838Z,3.47
2022-10-18T11:11:22.253Z,3.70
2022-10-18T11:14:01.585Z,3.17
2022-10-18T11:16:51.445Z,3.60
2022-10-18T11:19:37.259Z,3.60
2022-10-18T11:22:04.842Z,2.63
2022-10-18T11:24:31.439Z,3.08
2022-10-18T11:27:03.507Z,3.55
2022-10-18T11:29:35.478Z,3.30
2022-10-18T11:32:04.638Z,3.08
2022-10-18T11:34:56.098Z,3.08
2022-10-18T11:37:32.168Z,2.97
2022-10-18T11:40:08.815Z,2.65
2022-10-18T11:42:39.698Z,2.95
2022-10-18T11:45:06.506Z,4.45
2022-10-18T11:47:37.124Z,3.20
2022-10-18T11:50:09.263Z,3.60
2022-10-18T11:52:42.754Z,2.65
2022-10-18T11:55:33.138Z,2.55
2022-10-18T11:58:02.673Z,2.15
2022-10-18T12:00:39.672Z,2.50
2022-10-18T12:03:08.826Z,2.55
2022-10-18T12:05:36.994Z,2.47
2022-10-18T12:08:08.615Z,2.35
2022-10-18T12:10:44.372Z,3.13
2022-10-18T12:13:38.265Z,2.50
2022-10-18T12:16:07.440Z,3.15
2022-10-18T12:18:35.349Z,3.85
2022-10-18T12:21:02.376Z,3.75
2022-10-18T12:23:47.569Z,3.85
2022-10-18T12:26:14.189Z,3.90
2022-10-18T12:28:56.541Z,4.50
2022-10-18T12:31:23.031Z,3.83
2022-10-18T12:33:51.082Z,3.63
2022-10-18T12:36:26.568Z,3.00
2022-10-18T12:38:55.459Z,3.03
2022-10-18T12:41:24.584Z,3.15
2022-10-18T12:43:55.973Z,3.15
2022-10-18T12:46:22.531Z,2.88
2022-10-18T12:49:00.061Z,3.58
2022-10-18T12:51:26.484Z,2.47
2022-10-18T12:54:01.650Z,2.08
2022-10-18T12:59:14.765Z,2.63
2022-10-18T13:01:53.130Z,2.58
2022-10-18T13:04:28.637Z,2.47
2022-10-18T13:07:02.895Z,2.47
2022-10-18T13:09:35.367Z,3.23
2022-10-18T13:12:10.748Z,2.58
2022-10-18T13:14:53.361Z,2.60
2022-10-18T13:17:39.268Z,2.67
2022-10-18T13:20:27.419Z,2.90
2022-10-18T13:22:56.845Z,2.60
2022-10-18T13:25:41.850Z,3.00
2022-10-18T13:28:34.324Z,2.63
2022-10-18T13:31:20.181Z,2.13
2022-10-18T13:33:46.544Z,2.80
2022-10-18T13:36:24.881Z,2.58
2022-10-18T13:38:55.736Z,2.22
2022-10-18T13:41:32.782Z,2.75
2022-10-18T13:44:11.395Z,2.50
2022-10-18T13:46:37.819Z,2.33
2022-10-18T13:49:27.784Z,2.50
2022-10-18T13:52:12.485Z,2.53
2022-10-18T13:54:57.456Z,2.30
2022-10-18T13:57:26.742Z,2.65
2022-10-18T14:00:19.183Z,2.40
2022-10-18T14:02:59.657Z,2.00
2022-10-18T14:05:44.761Z,1.90
2022-10-18T14:08:17.214Z,2.80
2022-10-18T14:11:03.033Z,2.47
2022-10-18T14:13:43.320Z,2.30
2022-10-18T14:16:28.208Z,2.60
2022-10-18T14:18:58.689Z,2.25
2022-10-18T14:21:31.466Z,2.97
2022-10-18T14:23:58.012Z,2.97
2022-10-18T14:26:24.361Z,2.50
2022-10-18T14:29:17.262Z,2.83
2022-10-18T14:31:49.690Z,3.17
2022-10-18T14:34:16.229Z,2.40
2022-10-18T14:36:45.625Z,2.92
2022-10-18T14:39:30.628Z,2.17
2022-10-18T14:41:57.647Z,2.72
2022-10-18T14:44:28.177Z,2.95
2022-10-18T14:47:01.773Z,2.33
2022-10-18T14:49:28.260Z,2.30
2022-10-18T14:52:00.628Z,2.20
2022-10-18T14:54:32.321Z,2.63
2022-10-18T14:56:59.335Z,2.25
2022-10-18T14:59:30.587Z,2.70
2022-10-18T15:01:58.435Z,2.33
2022-10-18T15:04:31.077Z,2.47
2022-10-18T15:06:57.858Z,3.60
2022-10-18T15:09:24.540Z,2.67
2022-10-18T15:11:51.766Z,2.70
2022-10-18T15:14:18.951Z,2.60
2022-10-18T15:16:46.151Z,2.22
2022-10-18T15:19:15.351Z,2.53
2022-10-18T15:22:07.986Z,2.85
2022-10-18T15:24:41.371Z,2.10
2022-10-18T15:27:25.454Z,2.50
2022-10-18T15:29:52.157Z,2.85
2022-10-18T15:32:21.242Z,2.92
2022-10-18T15:34:47.603Z,2.67
2022-10-18T15:37:18.277Z,3.35
2022-10-18T15:39:44.692Z,4.47
2022-10-18T15:42:30.968Z,4.50
2022-10-18T15:44:57.267Z,3.17
2022-10-18T15:47:24.938Z,3.00
2022-10-18T15:49:54.477Z,3.33
2022-10-18T15:52:36.676Z,4.13
2022-10-18T15:55:24.510Z,3.22
2022-10-18T15:57:50.844Z,3.20
2022-10-18T16:00:19.579Z,3.30
2022-10-18T16:02:46.282Z,3.53
2022-10-18T16:05:20.684Z,3.10
2022-10-18T16:07:51.774Z,3.35
2022-10-18T16:10:18.168Z,2.95
2022-10-18T16:12:44.498Z,2.97
2022-10-18T16:15:10.854Z,2.60
2022-10-18T16:17:37.328Z,3.85
2022-10-18T16:20:03.747Z,3.40
2022-10-18T16:22:32.226Z,3.50
2022-10-18T16:25:01.107Z,3.30
2022-10-18T16:27:27.437Z,3.55
2022-10-18T16:29:53.903Z,3.42
2022-10-18T16:32:20.175Z,3.15
2022-10-18T16:34:46.471Z,3.00
2022-10-18T16:37:12.809Z,3.88
2022-10-18T16:39:39.125Z,3.70
2022-10-18T16:42:05.680Z,4.53
2022-10-18T16:44:32.064Z,5.05
2022-10-18T16:46:58.465Z,4.68
2022-10-18T16:49:25.687Z,5.78
2022-10-18T16:51:55.124Z,5.20
2022-10-18T16:54:21.662Z,4.43
2022-10-18T16:56:49.985Z,5.00
2022-10-18T16:59:29.390Z,4.70
2022-10-18T17:01:55.795Z,4.63
2022-10-18T17:04:22.258Z,5.53
2022-10-18T17:06:49.198Z,5.35
2022-10-18T17:09:16.104Z,4.95
2022-10-18T17:11:42.586Z,4.97
2022-10-18T17:14:09.059Z,6.05
2022-10-18T17:16:37.038Z,5.38
2022-10-18T17:19:04.477Z,5.10
2022-10-18T17:21:31.357Z,3.90
2022-10-18T17:24:05.989Z,3.47
2022-10-18T17:26:33.052Z,3.97
2022-10-18T17:29:01.234Z,3.53
2022-10-18T17:31:28.490Z,2.78
2022-10-18T17:33:55.328Z,3.50
2022-10-18T17:36:21.785Z,2.70
2022-10-18T17:38:51.668Z,3.03
2022-10-18T17:41:18.049Z,3.20
2022-10-18T17:43:44.556Z,3.33
2022-10-18T17:46:11.982Z,3.60
2022-10-18T17:48:38.272Z,3.33
2022-10-18T17:51:08.295Z,3.72
2022-10-18T17:53:34.883Z,3.50
2022-10-18T17:56:02.653Z,3.65
2022-10-18T17:58:29.619Z,3.67
2022-10-18T18:00:55.980Z,3.58
2022-10-18T18:03:22.333Z,3.85
2022-10-18T18:05:49.372Z,3.83
2022-10-18T18:08:15.912Z,4.10
2022-10-18T18:10:42.336Z,4.47
2022-10-18T18:13:08.869Z,4.03
2022-10-18T18:15:35.603Z,3.35
2022-10-18T18:18:01.917Z,3.75
2022-10-18T18:20:28.412Z,3.30
2022-10-18T18:22:54.766Z,3.35
2022-10-18T18:25:21.489Z,3.45
2022-10-18T18:27:47.856Z,3.03
2022-10-18T18:30:15.490Z,4.07
2022-10-18T18:32:41.883Z,3.25
2022-10-18T18:35:08.386Z,4.03
2022-10-18T18:37:34.963Z,2.88
2022-10-18T18:40:01.383Z,3.58
2022-10-18T18:42:27.992Z,3.40
2022-10-18T18:44:54.294Z,3.40
2022-10-18T18:47:23.475Z,3.38
2022-10-18T18:49:51.493Z,2.85
2022-10-18T18:52:17.924Z,3.85
2022-10-18T18:54:44.271Z,4.35
2022-10-18T18:57:10.589Z,3.30
2022-10-18T18:59:36.937Z,3.67
2022-10-18T19:02:03.346Z,4.75
2022-10-18T19:04:29.890Z,4.05
2022-10-18T19:06:56.256Z,3.80
2022-10-18T19:09:23.027Z,3.78
2022-10-18T19:11:53.368Z,3.90
2022-10-18T19:14:20.129Z,3.80
2022-10-18T19:16:50.669Z,3.50
2022-10-18T19:19:18.405Z,4.78
2022-10-18T19:21:46.203Z,4.35
2022-10-18T19:24:12.721Z,3.65
2022-10-18T19:26:44.970Z,4.20
2022-10-18T19:29:13.196Z,4.63
2022-10-18T19:31:39.876Z,4.38
2022-10-18T19:34:07.620Z,4.43
2022-10-18T19:36:34.240Z,5.18
2022-10-18T19:39:00.767Z,5.15
2022-10-18T19:41:28.592Z,5.72
2022-10-18T19:43:56.184Z,5.00
2022-10-18T19:46:22.737Z,5.15
2022-10-18T19:48:49.228Z,5.28
2022-10-18T19:51:19.508Z,3.97
2022-10-18T19:53:49.500Z,4.47
2022-10-18T19:56:20.478Z,6.25
2022-10-18T19:58:47.481Z,5.30
2022-10-18T20:01:14.799Z,6.00
2022-10-18T20:03:41.312Z,6.47
2022-10-18T20:06:07.717Z,6.30
2022-10-18T20:08:35.146Z,5.53
2022-10-18T20:11:02.255Z,5.22
2022-10-18T20:13:28.679Z,6.30
2022-10-18T20:15:55.131Z,4.90
2022-10-18T20:18:21.872Z,4.53
2022-10-18T20:20:48.748Z,4.50
2022-10-18T20:23:15.764Z,4.18
2022-10-18T20:25:42.706Z,3.80
2022-10-18T20:28:09.013Z,3.42
2022-10-18T20:30:35.323Z,3.95
2022-10-18T20:33:01.789Z,4.43
2022-10-18T20:35:28.139Z,4.38
2022-10-18T20:37:55.888Z,3.63
2022-10-18T20:40:22.320Z,3.47
2022-10-18T20:42:50.900Z,3.70
2022-10-18T20:45:17.193Z,3.00
2022-10-18T20:47:43.687Z,3.45
2022-10-18T20:50:10.581Z,3.65
2022-10-18T20:52:37.144Z,3.95
2022-10-18T20:55:03.922Z,3.88
2022-10-18T20:57:36.831Z,2.83
2022-10-18T21:00:03.788Z,3.17
2022-10-18T21:02:30.293Z,2.92
2022-10-18T21:05:00.842Z,2.83
2022-10-18T21:07:28.797Z,3.13
2022-10-18T21:09:55.113Z,3.10
2022-10-18T21:12:21.643Z,2.95
2022-10-18T21:14:48.431Z,3.13
2022-10-18T21:17:14.917Z,3.42
2022-10-18T21:19:41.403Z,2.97
2022-10-18T21:22:07.743Z,2.80
2022-10-18T21:24:37.680Z,3.00
2022-10-18T21:27:04.167Z,4.32
2022-10-18T21:29:30.914Z,3.75
2022-10-18T21:31:59.473Z,3.50
2022-10-18T21:34:26.446Z,3.45
2022-10-18T21:36:52.924Z,2.75
2022-10-18T21:39:20.740Z,3.63
2022-10-18T21:41:47.659Z,2.67
2022-10-18T21:44:14.479Z,3.15
2022-10-18T21:46:42.987Z,2.90
2022-10-18T21:49:10.169Z,3.30
2022-10-18T21:51:36.685Z,3.03
2022-10-18T21:54:03.384Z,5.00
2022-10-18T21:56:31.242Z,3.75
2022-10-18T21:58:58.032Z,3.75
2022-10-18T22:01:25.922Z,3.97
2022-10-18T22:03:53.645Z,3.10
2022-10-18T22:06:20.408Z,3.85
2022-10-18T22:08:58.022Z,3.55
2022-10-18T22:11:25.968Z,3.58
2022-10-18T22:13:52.965Z,3.35
2022-10-18T22:16:19.494Z,3.17
2022-10-18T22:18:46.824Z,5.32
2022-10-18T22:21:14.775Z,3.80
2022-10-18T22:23:43.189Z,4.10
2022-10-18T22:26:17.664Z,3.80
2022-10-18T22:28:44.509Z,3.58
2022-10-18T22:31:14.801Z,4.13
2022-10-18T22:33:41.200Z,4.15
2022-10-18T22:36:07.581Z,4.47
2022-10-18T22:38:34.977Z,3.95
2022-10-18T22:41:05.319Z,4.43
2022-10-18T22:43:31.908Z,4.28
2022-10-18T22:46:02.483Z,4.40
2022-10-18T22:48:34.348Z,3.67
2022-10-18T22:51:01.361Z,3.60
2022-10-18T22:53:27.960Z,3.58
2022-10-18T22:55:54.349Z,3.75
2022-10-18T22:58:20.707Z,3.88
2022-10-18T23:00:47.672Z,3.65
2022-10-18T23:03:14.794Z,3.78
2022-10-18T23:05:42.276Z,4.22
2022-10-18T23:08:09.527Z,3.60
2022-10-18T23:10:42.566Z,4.10
2022-10-18T23:13:10.091Z,4.65
2022-10-18T23:15:38.983Z,3.42
2022-10-18T23:18:05.551Z,4.28
2022-10-18T23:20:32.152Z,3.53
2022-10-18T23:23:01.564Z,3.67
2022-10-18T23:25:28.443Z,3.90
2022-10-18T23:27:57.796Z,4.10
2022-10-18T23:30:24.328Z,4.57
2022-10-18T23:32:50.645Z,4.57
2022-10-18T23:35:17.303Z,4.10
2022-10-18T23:37:43.650Z,4.78
2022-10-18T23:40:10.460Z,4.40
2022-10-18T23:42:37.018Z,3.47
2022-10-18T23:45:03.653Z,3.80
2022-10-18T23:47:30.380Z,4.15
2022-10-18T23:49:58.919Z,3.67
2022-10-18T23:52:25.426Z,3.33
2022-10-18T23:54:51.926Z,3.72
2022-10-18T23:57:18.344Z,3.08
2022-10-18T23:59:44.764Z,3.08
